Delta Pioneer — SYIO — position and weather

sailwx.info

Track history (hours):
 
Tides and Currents Weather Stations Pressure Air Temp Water Temp Dewpoint Dewpoint Depression Visibility Wind Speed Wind Dir Waves Ship Positions

Delta Pioneer

Last reported at 2014-Aug-22 09:33 UTC. Time now 2014-Aug-22 09:53 UTC.
Position N 51°56' E 004°12'.

Length 249 m; draft 13 m.

Type: Tanker. MMSI: 240244000.

Date/timePositionNaut miles runAvg speedWind from/ knotsBaromVisibWave heightAir tempDewpointWater temp
2014-Aug-22 09:33N 51°56' E 004°12'0 0.0
2014-Aug-22 08:33N 51°56' E 004°12'0 0.0
2014-Aug-22 07:33N 51°56' E 004°12'0 0.0
2014-Aug-22 06:33N 51°56' E 004°12'0 0.0
2014-Aug-22 05:33N 51°56' E 004°12'0 0.0
2014-Aug-22 04:33N 51°56' E 004°12'0 0.0
2014-Aug-22 03:33N 51°56' E 004°12'0 0.0
2014-Aug-22 02:33N 51°56' E 004°12'0 0.0
2014-Aug-22 01:33N 51°56' E 004°12'0 0.0
2014-Aug-22 00:33N 51°56' E 004°12'0 0.0
2014-Aug-21 23:33N 51°56' E 004°12'0 0.0
2014-Aug-21 22:33N 51°56' E 004°12'0 0.0
2014-Aug-21 21:33N 51°56' E 004°12'0 0.0
2014-Aug-21 20:33N 51°56' E 004°12'0 0.0
2014-Aug-21 19:33N 51°56' E 004°12'0 0.0
2014-Aug-21 18:33N 51°56' E 004°12'0 0.0
2014-Aug-21 17:33N 51°56' E 004°12'0 0.0
2014-Aug-21 16:33N 51°56' E 004°12'0 0.0
2014-Aug-21 15:33N 51°56' E 004°12'0 0.0
2014-Aug-21 14:33N 51°56' E 004°12'0 0.0
2014-Aug-21 13:33N 51°56' E 004°12'0 0.0
2014-Aug-21 12:33N 51°56' E 004°12'0 0.0
2014-Aug-21 11:33N 51°56' E 004°12'0 0.0
2014-Aug-21 10:33N 51°56' E 004°12'0 0.0
2014-Aug-21 09:33N 51°56' E 004°12'0 0.0
2014-Aug-21 08:33N 51°56' E 004°12'0 0.0
2014-Aug-21 07:33N 51°56' E 004°12'0 0.0
2014-Aug-21 06:33N 51°56' E 004°12'0 0.0
2014-Aug-21 05:33N 51°56' E 004°12'0 0.0
2014-Aug-21 04:33N 51°56' E 004°12'0 0.0
2014-Aug-21 03:33N 51°56' E 004°12'0 0.0
2014-Aug-21 02:33N 51°56' E 004°12'0 0.0
2014-Aug-21 01:33N 51°56' E 004°12'0 0.0
2014-Aug-21 00:33N 51°56' E 004°12'1 0.8
2014-Aug-20 23:33N 51°56' E 004°11'7 7.2
2014-Aug-20 22:33N 51°60' E 004°01'1110.6
2014-Aug-20 21:33N 51°59' E 003°44'122 2.5
2014-Aug-18 21:33N 53°60' E 004°11'307 9.8
2014-Aug-17 14:22N 57°51' E 010°10'810.3
2014-Aug-17 13:33N 57°51' E 010°26'10 9.8
2014-Aug-17 12:33N 57°50' E 010°44'1010.3
2014-Aug-17 11:33N 57°42' E 010°58'1010.3
2014-Aug-17 10:33N 57°35' E 011°12'1010.3
2014-Aug-17 09:33N 57°28' E 011°26'10 9.9
2014-Aug-17 08:33N 57°19' E 011°32'1010.2
2014-Aug-17 07:33N 57°09' E 011°38'1010.1
2014-Aug-17 06:33N 56°60' E 011°44'1010.0
2014-Aug-17 05:33N 56°50' E 011°50'9 8.5
2014-Aug-17 04:33N 56°42' E 011°51'1010.6
2014-Aug-17 03:33N 56°33' E 011°41'121 8.4
2014-Aug-16 13:15N 54°33' E 011°22'1911.1
2014-Aug-16 11:34N 54°26' E 011°52'1111.1
2014-Aug-16 10:33N 54°27' E 012°11'1010.2
2014-Aug-16 09:33N 54°37' E 012°17'9 9.3
2014-Aug-16 08:33N 54°42' E 012°30'9 8.7
2014-Aug-16 07:33N 54°46' E 012°43'1010.1
2014-Aug-16 06:32N 54°51' E 012°59'2010.1
2014-Aug-16 04:33N 54°58' E 013°32'29 9.5
2014-Aug-16 01:33N 55°12' E 014°15'1010.2
2014-Aug-16 00:33N 55°20' E 014°26'1210.3
2014-Aug-15 23:22N 55°29' E 014°41'810.4
2014-Aug-15 22:33N 55°32' E 014°55'2210.3
2014-Aug-15 20:25N 55°40' E 015°31'1110.5
2014-Aug-15 19:24N 55°43' E 015°49'  
2014-Aug-12 12:32N 55°38' E 015°39'1110.9
2014-Aug-12 11:33N 55°34' E 015°21'1111.3
2014-Aug-12 10:33N 55°30' E 015°03'  
Track history (hours):
 
Tides and Currents Weather Stations Pressure Air Temp Water Temp Dewpoint Dewpoint Depression Visibility Wind Speed Wind Dir Waves Ship Positions

Delta Pioneer

Last reported at 2014-Aug-22 09:33 UTC. Time now 2014-Aug-22 09:53 UTC.
Position N 51°56' E 004°12'.

Length 249 m; draft 13 m.

Type: Tanker. MMSI: 240244000.

Date/timePositionNaut miles runAvg speedWind from/ knotsBaromVisibWave heightAir tempDewpointWater temp
2014-Aug-22 09:33N 51°56' E 004°12'0 0.0
2014-Aug-22 08:33N 51°56' E 004°12'0 0.0
2014-Aug-22 07:33N 51°56' E 004°12'0 0.0
2014-Aug-22 06:33N 51°56' E 004°12'0 0.0
2014-Aug-22 05:33N 51°56' E 004°12'0 0.0
2014-Aug-22 04:33N 51°56' E 004°12'0 0.0
2014-Aug-22 03:33N 51°56' E 004°12'0 0.0
2014-Aug-22 02:33N 51°56' E 004°12'0 0.0
2014-Aug-22 01:33N 51°56' E 004°12'0 0.0
2014-Aug-22 00:33N 51°56' E 004°12'0 0.0
2014-Aug-21 23:33N 51°56' E 004°12'0 0.0
2014-Aug-21 22:33N 51°56' E 004°12'0 0.0
2014-Aug-21 21:33N 51°56' E 004°12'0 0.0
2014-Aug-21 20:33N 51°56' E 004°12'0 0.0
2014-Aug-21 19:33N 51°56' E 004°12'0 0.0
2014-Aug-21 18:33N 51°56' E 004°12'0 0.0
2014-Aug-21 17:33N 51°56' E 004°12'0 0.0
2014-Aug-21 16:33N 51°56' E 004°12'0 0.0
2014-Aug-21 15:33N 51°56' E 004°12'0 0.0
2014-Aug-21 14:33N 51°56' E 004°12'0 0.0
2014-Aug-21 13:33N 51°56' E 004°12'0 0.0
2014-Aug-21 12:33N 51°56' E 004°12'0 0.0
2014-Aug-21 11:33N 51°56' E 004°12'0 0.0
2014-Aug-21 10:33N 51°56' E 004°12'0 0.0
2014-Aug-21 09:33N 51°56' E 004°12'0 0.0
2014-Aug-21 08:33N 51°56' E 004°12'0 0.0
2014-Aug-21 07:33N 51°56' E 004°12'0 0.0
2014-Aug-21 06:33N 51°56' E 004°12'0 0.0
2014-Aug-21 05:33N 51°56' E 004°12'0 0.0
2014-Aug-21 04:33N 51°56' E 004°12'0 0.0
2014-Aug-21 03:33N 51°56' E 004°12'0 0.0
2014-Aug-21 02:33N 51°56' E 004°12'0 0.0
2014-Aug-21 01:33N 51°56' E 004°12'0 0.0
2014-Aug-21 00:33N 51°56' E 004°12'1 0.8
2014-Aug-20 23:33N 51°56' E 004°11'7 7.2
2014-Aug-20 22:33N 51°60' E 004°01'1110.6
2014-Aug-20 21:33N 51°59' E 003°44'122 2.5
2014-Aug-18 21:33N 53°60' E 004°11'307 9.8
2014-Aug-17 14:22N 57°51' E 010°10'810.3
2014-Aug-17 13:33N 57°51' E 010°26'10 9.8
2014-Aug-17 12:33N 57°50' E 010°44'1010.3
2014-Aug-17 11:33N 57°42' E 010°58'1010.3
2014-Aug-17 10:33N 57°35' E 011°12'1010.3
2014-Aug-17 09:33N 57°28' E 011°26'10 9.9
2014-Aug-17 08:33N 57°19' E 011°32'1010.2
2014-Aug-17 07:33N 57°09' E 011°38'1010.1
2014-Aug-17 06:33N 56°60' E 011°44'1010.0
2014-Aug-17 05:33N 56°50' E 011°50'9 8.5
2014-Aug-17 04:33N 56°42' E 011°51'1010.6
2014-Aug-17 03:33N 56°33' E 011°41'121 8.4
2014-Aug-16 13:15N 54°33' E 011°22'1911.1
2014-Aug-16 11:34N 54°26' E 011°52'1111.1
2014-Aug-16 10:33N 54°27' E 012°11'1010.2
2014-Aug-16 09:33N 54°37' E 012°17'9 9.3
2014-Aug-16 08:33N 54°42' E 012°30'9 8.7
2014-Aug-16 07:33N 54°46' E 012°43'1010.1
2014-Aug-16 06:32N 54°51' E 012°59'2010.1
2014-Aug-16 04:33N 54°58' E 013°32'29 9.5
2014-Aug-16 01:33N 55°12' E 014°15'1010.2
2014-Aug-16 00:33N 55°20' E 014°26'1210.3
2014-Aug-15 23:22N 55°29' E 014°41'810.4
2014-Aug-15 22:33N 55°32' E 014°55'2210.3
2014-Aug-15 20:25N 55°40' E 015°31'1110.5
2014-Aug-15 19:24N 55°43' E 015°49'  
2014-Aug-12 12:32N 55°38' E 015°39'1110.9
2014-Aug-12 11:33N 55°34' E 015°21'1111.3
2014-Aug-12 10:33N 55°30' E 015°03'  

Dump ship's entire track history